sensor_id;sensor_type;location;lat;lon;timestamp;P1;durP1;ratioP1;P2;durP2;ratioP2
3779;SDS011;1905;52.482;9.802;2024-01-10T00:00:50;9.80;;;3.40;;
3779;SDS011;1905;52.482;9.802;2024-01-10T00:03:18;9.57;;;4.10;;
3779;SDS011;1905;52.482;9.802;2024-01-10T00:05:45;9.97;;;4.47;;
3779;SDS011;1905;52.482;9.802;2024-01-10T00:08:13;8.60;;;3.70;;
3779;SDS011;1905;52.482;9.802;2024-01-10T00:10:41;8.07;;;4.00;;
3779;SDS011;1905;52.482;9.802;2024-01-10T00:13:12;11.27;;;5.07;;
3779;SDS011;1905;52.482;9.802;2024-01-10T00:15:39;9.40;;;4.27;;
3779;SDS011;1905;52.482;9.802;2024-01-10T00:18:08;19.67;;;4.40;;
3779;SDS011;1905;52.482;9.802;2024-01-10T00:20:36;8.93;;;3.60;;
3779;SDS011;1905;52.482;9.802;2024-01-10T00:23:04;11.57;;;4.23;;
3779;SDS011;1905;52.482;9.802;2024-01-10T00:25:32;8.90;;;4.00;;
3779;SDS011;1905;52.482;9.802;2024-01-10T00:28:00;13.90;;;4.57;;
3779;SDS011;1905;52.482;9.802;2024-01-10T00:30:28;14.33;;;4.53;;
3779;SDS011;1905;52.482;9.802;2024-01-10T00:32:56;9.67;;;5.20;;
3779;SDS011;1905;52.482;9.802;2024-01-10T00:35:25;12.63;;;4.63;;
3779;SDS011;1905;52.482;9.802;2024-01-10T00:37:53;9.30;;;3.80;;
3779;SDS011;1905;52.482;9.802;2024-01-10T00:40:21;14.43;;;3.80;;
3779;SDS011;1905;52.482;9.802;2024-01-10T00:42:49;9.50;;;4.03;;
3779;SDS011;1905;52.482;9.802;2024-01-10T00:45:17;13.40;;;4.93;;
3779;SDS011;1905;52.482;9.802;2024-01-10T00:47:44;10.00;;;3.77;;
3779;SDS011;1905;52.482;9.802;2024-01-10T00:50:12;11.93;;;3.93;;
3779;SDS011;1905;52.482;9.802;2024-01-10T00:52:41;11.07;;;4.47;;
3779;SDS011;1905;52.482;9.802;2024-01-10T00:55:10;9.40;;;4.37;;
3779;SDS011;1905;52.482;9.802;2024-01-10T00:57:38;9.20;;;3.50;;
3779;SDS011;1905;52.482;9.802;2024-01-10T01:00:06;14.67;;;4.20;;
3779;SDS011;1905;52.482;9.802;2024-01-10T01:02:35;11.67;;;4.57;;
3779;SDS011;1905;52.482;9.802;2024-01-10T01:05:03;9.77;;;3.73;;
3779;SDS011;1905;52.482;9.802;2024-01-10T01:07:31;13.07;;;4.50;;
3779;SDS011;1905;52.482;9.802;2024-01-10T01:10:00;11.13;;;4.37;;
3779;SDS011;1905;52.482;9.802;2024-01-10T01:12:29;7.90;;;3.30;;
3779;SDS011;1905;52.482;9.802;2024-01-10T01:14:56;9.40;;;4.60;;
3779;SDS011;1905;52.482;9.802;2024-01-10T01:17:24;11.00;;;4.10;;
3779;SDS011;1905;52.482;9.802;2024-01-10T01:19:51;10.03;;;4.10;;
3779;SDS011;1905;52.482;9.802;2024-01-10T01:22:18;8.97;;;3.80;;
3779;SDS011;1905;52.482;9.802;2024-01-10T01:24:46;10.30;;;3.90;;
3779;SDS011;1905;52.482;9.802;2024-01-10T01:27:15;10.60;;;4.10;;
3779;SDS011;1905;52.482;9.802;2024-01-10T01:29:42;12.37;;;4.30;;
3779;SDS011;1905;52.482;9.802;2024-01-10T01:32:10;13.30;;;4.70;;
3779;SDS011;1905;52.482;9.802;2024-01-10T01:34:38;11.83;;;4.07;;
3779;SDS011;1905;52.482;9.802;2024-01-10T01:37:06;11.83;;;4.37;;
3779;SDS011;1905;52.482;9.802;2024-01-10T01:39:33;9.03;;;3.67;;
3779;SDS011;1905;52.482;9.802;2024-01-10T01:42:01;9.77;;;4.27;;
3779;SDS011;1905;52.482;9.802;2024-01-10T01:44:31;9.20;;;3.93;;
3779;SDS011;1905;52.482;9.802;2024-01-10T01:46:59;11.27;;;4.10;;
3779;SDS011;1905;52.482;9.802;2024-01-10T01:49:27;11.80;;;3.97;;
3779;SDS011;1905;52.482;9.802;2024-01-10T01:51:56;13.40;;;5.43;;
3779;SDS011;1905;52.482;9.802;2024-01-10T01:54:24;14.63;;;4.87;;
3779;SDS011;1905;52.482;9.802;2024-01-10T01:56:53;10.73;;;3.90;;
3779;SDS011;1905;52.482;9.802;2024-01-10T01:59:20;9.13;;;3.50;;
3779;SDS011;1905;52.482;9.802;2024-01-10T02:06:21;15.33;;;4.47;;
3779;SDS011;1905;52.482;9.802;2024-01-10T02:08:50;10.50;;;3.10;;
3779;SDS011;1905;52.482;9.802;2024-01-10T02:11:18;10.93;;;4.23;;
3779;SDS011;1905;52.482;9.802;2024-01-10T02:13:48;8.50;;;3.40;;
3779;SDS011;1905;52.482;9.802;2024-01-10T02:16:16;13.03;;;4.67;;
3779;SDS011;1905;52.482;9.802;2024-01-10T02:18:45;10.90;;;3.77;;
3779;SDS011;1905;52.482;9.802;2024-01-10T02:21:12;10.10;;;3.47;;
3779;SDS011;1905;52.482;9.802;2024-01-10T02:23:41;12.20;;;3.83;;
3779;SDS011;1905;52.482;9.802;2024-01-10T02:26:10;12.97;;;5.23;;
3779;SDS011;1905;52.482;9.802;2024-01-10T02:28:38;12.63;;;4.70;;
3779;SDS011;1905;52.482;9.802;2024-01-10T02:31:06;9.43;;;4.30;;
3779;SDS011;1905;52.482;9.802;2024-01-10T02:33:34;13.17;;;4.73;;
3779;SDS011;1905;52.482;9.802;2024-01-10T02:36:02;10.17;;;4.00;;
3779;SDS011;1905;52.482;9.802;2024-01-10T02:38:31;13.97;;;4.87;;
3779;SDS011;1905;52.482;9.802;2024-01-10T02:40:58;13.70;;;5.00;;
3779;SDS011;1905;52.482;9.802;2024-01-10T02:43:31;12.80;;;6.00;;
3779;SDS011;1905;52.482;9.802;2024-01-10T02:45:59;10.60;;;5.20;;
3779;SDS011;1905;52.482;9.802;2024-01-10T02:48:27;13.73;;;4.53;;
3779;SDS011;1905;52.482;9.802;2024-01-10T02:50:54;13.70;;;5.10;;
3779;SDS011;1905;52.482;9.802;2024-01-10T02:53:22;12.63;;;5.10;;
3779;SDS011;1905;52.482;9.802;2024-01-10T02:55:50;12.60;;;5.23;;
3779;SDS011;1905;52.482;9.802;2024-01-10T02:58:20;19.27;;;5.73;;
3779;SDS011;1905;52.482;9.802;2024-01-10T03:00:53;13.77;;;5.07;;
3779;SDS011;1905;52.482;9.802;2024-01-10T03:03:27;11.43;;;5.60;;
3779;SDS011;1905;52.482;9.802;2024-01-10T03:05:55;15.37;;;5.83;;
3779;SDS011;1905;52.482;9.802;2024-01-10T03:08:24;12.57;;;6.30;;
3779;SDS011;1905;52.482;9.802;2024-01-10T03:10:52;14.40;;;5.17;;
3779;SDS011;1905;52.482;9.802;2024-01-10T03:13:20;13.40;;;5.60;;
3779;SDS011;1905;52.482;9.802;2024-01-10T03:15:48;10.80;;;4.50;;
3779;SDS011;1905;52.482;9.802;2024-01-10T03:18:17;11.43;;;5.43;;
3779;SDS011;1905;52.482;9.802;2024-01-10T03:20:45;14.30;;;6.00;;
3779;SDS011;1905;52.482;9.802;2024-01-10T03:23:13;15.47;;;4.50;;
3779;SDS011;1905;52.482;9.802;2024-01-10T03:25:41;11.47;;;5.10;;
3779;SDS011;1905;52.482;9.802;2024-01-10T03:28:09;13.17;;;4.83;;
3779;SDS011;1905;52.482;9.802;2024-01-10T03:30:37;14.47;;;5.20;;
3779;SDS011;1905;52.482;9.802;2024-01-10T03:33:05;14.97;;;5.67;;
3779;SDS011;1905;52.482;9.802;2024-01-10T03:35:35;9.60;;;4.80;;
3779;SDS011;1905;52.482;9.802;2024-01-10T03:38:02;13.47;;;5.83;;
3779;SDS011;1905;52.482;9.802;2024-01-10T03:40:31;9.70;;;4.33;;
3779;SDS011;1905;52.482;9.802;2024-01-10T03:42:59;12.50;;;5.70;;
3779;SDS011;1905;52.482;9.802;2024-01-10T03:45:27;12.47;;;4.93;;
3779;SDS011;1905;52.482;9.802;2024-01-10T03:47:54;15.33;;;5.80;;
3779;SDS011;1905;52.482;9.802;2024-01-10T03:50:22;19.07;;;5.13;;
3779;SDS011;1905;52.482;9.802;2024-01-10T03:52:52;11.80;;;6.17;;
3779;SDS011;1905;52.482;9.802;2024-01-10T03:55:20;14.40;;;5.17;;
3779;SDS011;1905;52.482;9.802;2024-01-10T03:57:47;13.13;;;5.50;;
3779;SDS011;1905;52.482;9.802;2024-01-10T04:00:15;20.87;;;6.93;;
3779;SDS011;1905;52.482;9.802;2024-01-10T04:02:43;14.83;;;6.20;;
3779;SDS011;1905;52.482;9.802;2024-01-10T04:05:11;13.47;;;6.37;;
3779;SDS011;1905;52.482;9.802;2024-01-10T04:07:40;10.70;;;6.00;;
3779;SDS011;1905;52.482;9.802;2024-01-10T04:10:11;10.43;;;4.87;;
3779;SDS011;1905;52.482;9.802;2024-01-10T04:12:41;17.57;;;7.23;;
3779;SDS011;1905;52.482;9.802;2024-01-10T04:15:09;14.43;;;5.63;;
3779;SDS011;1905;52.482;9.802;2024-01-10T04:17:37;15.70;;;5.00;;
3779;SDS011;1905;52.482;9.802;2024-01-10T04:20:06;14.97;;;6.13;;
3779;SDS011;1905;52.482;9.802;2024-01-10T04:49:51;18.90;;;5.33;;
3779;SDS011;1905;52.482;9.802;2024-01-10T04:52:19;14.03;;;5.87;;
3779;SDS011;1905;52.482;9.802;2024-01-10T04:54:47;14.23;;;5.13;;
3779;SDS011;1905;52.482;9.802;2024-01-10T04:57:16;15.90;;;5.73;;
3779;SDS011;1905;52.482;9.802;2024-01-10T04:59:44;16.50;;;5.67;;
3779;SDS011;1905;52.482;9.802;2024-01-10T05:02:11;14.80;;;5.43;;
3779;SDS011;1905;52.482;9.802;2024-01-10T05:04:39;11.63;;;6.20;;
3779;SDS011;1905;52.482;9.802;2024-01-10T05:07:08;16.97;;;7.17;;
3779;SDS011;1905;52.482;9.802;2024-01-10T05:09:36;16.70;;;5.70;;
3779;SDS011;1905;52.482;9.802;2024-01-10T05:12:04;20.10;;;6.03;;
3779;SDS011;1905;52.482;9.802;2024-01-10T05:14:32;13.83;;;6.20;;
3779;SDS011;1905;52.482;9.802;2024-01-10T05:17:00;17.63;;;6.23;;
3779;SDS011;1905;52.482;9.802;2024-01-10T05:19:28;15.13;;;6.67;;
3779;SDS011;1905;52.482;9.802;2024-01-10T05:21:56;15.90;;;6.60;;
3779;SDS011;1905;52.482;9.802;2024-01-10T05:24:29;12.93;;;5.60;;
3779;SDS011;1905;52.482;9.802;2024-01-10T05:26:57;22.03;;;6.77;;
3779;SDS011;1905;52.482;9.802;2024-01-10T05:29:25;20.53;;;7.20;;
3779;SDS011;1905;52.482;9.802;2024-01-10T05:31:53;13.63;;;5.43;;
3779;SDS011;1905;52.482;9.802;2024-01-10T05:34:22;12.80;;;5.90;;
3779;SDS011;1905;52.482;9.802;2024-01-10T05:36:49;14.73;;;6.13;;
3779;SDS011;1905;52.482;9.802;2024-01-10T05:39:17;15.23;;;5.93;;
3779;SDS011;1905;52.482;9.802;2024-01-10T05:41:48;19.27;;;7.33;;
3779;SDS011;1905;52.482;9.802;2024-01-10T05:44:17;14.67;;;7.80;;
3779;SDS011;1905;52.482;9.802;2024-01-10T05:46:45;16.33;;;7.87;;
3779;SDS011;1905;52.482;9.802;2024-01-10T05:49:14;13.33;;;6.40;;
3779;SDS011;1905;52.482;9.802;2024-01-10T05:51:43;18.20;;;8.30;;
3779;SDS011;1905;52.482;9.802;2024-01-10T05:54:10;14.00;;;6.30;;
3779;SDS011;1905;52.482;9.802;2024-01-10T05:56:39;15.50;;;6.70;;
3779;SDS011;1905;52.482;9.802;2024-01-10T05:59:09;12.87;;;6.20;;
3779;SDS011;1905;52.482;9.802;2024-01-10T06:01:38;20.83;;;7.23;;
3779;SDS011;1905;52.482;9.802;2024-01-10T06:04:06;20.90;;;7.60;;
3779;SDS011;1905;52.482;9.802;2024-01-10T06:06:35;20.90;;;7.73;;
3779;SDS011;1905;52.482;9.802;2024-01-10T06:09:04;21.23;;;7.70;;
3779;SDS011;1905;52.482;9.802;2024-01-10T06:11:40;30.23;;;8.63;;
3779;SDS011;1905;52.482;9.802;2024-01-10T06:14:11;19.67;;;7.50;;
3779;SDS011;1905;52.482;9.802;2024-01-10T06:16:43;18.90;;;7.50;;
3779;SDS011;1905;52.482;9.802;2024-01-10T06:19:12;20.40;;;8.73;;
3779;SDS011;1905;52.482;9.802;2024-01-10T06:21:40;17.20;;;8.40;;
3779;SDS011;1905;52.482;9.802;2024-01-10T06:24:09;17.37;;;7.10;;
3779;SDS011;1905;52.482;9.802;2024-01-10T06:30:57;18.00;;;7.87;;
3779;SDS011;1905;52.482;9.802;2024-01-10T06:33:25;18.80;;;7.50;;
3779;SDS011;1905;52.482;9.802;2024-01-10T06:35:53;18.77;;;8.07;;
3779;SDS011;1905;52.482;9.802;2024-01-10T06:38:21;18.53;;;8.20;;
3779;SDS011;1905;52.482;9.802;2024-01-10T06:40:50;19.73;;;7.50;;
3779;SDS011;1905;52.482;9.802;2024-01-10T06:43:18;21.10;;;9.00;;
3779;SDS011;1905;52.482;9.802;2024-01-10T06:45:46;24.90;;;8.97;;
3779;SDS011;1905;52.482;9.802;2024-01-10T06:48:15;18.07;;;8.17;;
3779;SDS011;1905;52.482;9.802;2024-01-10T06:50:46;12.63;;;5.73;;
3779;SDS011;1905;52.482;9.802;2024-01-10T06:53:14;17.93;;;7.00;;
3779;SDS011;1905;52.482;9.802;2024-01-10T06:55:42;22.83;;;9.77;;
3779;SDS011;1905;52.482;9.802;2024-01-10T06:58:10;23.23;;;9.90;;
3779;SDS011;1905;52.482;9.802;2024-01-10T07:00:37;15.93;;;9.03;;
3779;SDS011;1905;52.482;9.802;2024-01-10T07:03:05;22.20;;;9.73;;
3779;SDS011;1905;52.482;9.802;2024-01-10T07:05:35;18.07;;;8.27;;
3779;SDS011;1905;52.482;9.802;2024-01-10T07:08:03;23.33;;;8.17;;
3779;SDS011;1905;52.482;9.802;2024-01-10T07:10:32;20.40;;;8.67;;
3779;SDS011;1905;52.482;9.802;2024-01-10T07:13:00;21.33;;;9.40;;
3779;SDS011;1905;52.482;9.802;2024-01-10T07:15:30;20.10;;;7.97;;
3779;SDS011;1905;52.482;9.802;2024-01-10T07:17:58;22.53;;;8.87;;
3779;SDS011;1905;52.482;9.802;2024-01-10T07:20:26;22.97;;;10.37;;
3779;SDS011;1905;52.482;9.802;2024-01-10T07:22:55;21.30;;;9.03;;
3779;SDS011;1905;52.482;9.802;2024-01-10T07:25:23;18.43;;;6.93;;
3779;SDS011;1905;52.482;9.802;2024-01-10T07:27:52;20.80;;;9.97;;
3779;SDS011;1905;52.482;9.802;2024-01-10T07:30:19;20.40;;;9.27;;
3779;SDS011;1905;52.482;9.802;2024-01-10T07:32:47;16.70;;;6.57;;
3779;SDS011;1905;52.482;9.802;2024-01-10T07:35:15;23.27;;;10.93;;
3779;SDS011;1905;52.482;9.802;2024-01-10T07:37:43;19.03;;;9.60;;
3779;SDS011;1905;52.482;9.802;2024-01-10T07:40:12;15.10;;;8.87;;
3779;SDS011;1905;52.482;9.802;2024-01-10T07:42:40;20.07;;;8.03;;
3779;SDS011;1905;52.482;9.802;2024-01-10T07:45:08;16.93;;;9.40;;
3779;SDS011;1905;52.482;9.802;2024-01-10T07:47:37;13.43;;;6.77;;
3779;SDS011;1905;52.482;9.802;2024-01-10T07:50:06;21.83;;;8.93;;
3779;SDS011;1905;52.482;9.802;2024-01-10T07:52:38;15.67;;;9.30;;
3779;SDS011;1905;52.482;9.802;2024-01-10T07:55:08;31.33;;;14.50;;
3779;SDS011;1905;52.482;9.802;2024-01-10T07:57:39;29.17;;;13.67;;
3779;SDS011;1905;52.482;9.802;2024-01-10T08:00:09;23.73;;;9.77;;
3779;SDS011;1905;52.482;9.802;2024-01-10T08:02:38;26.73;;;10.53;;
3779;SDS011;1905;52.482;9.802;2024-01-10T08:09:56;20.17;;;9.97;;
3779;SDS011;1905;52.482;9.802;2024-01-10T08:13:56;19.60;;;8.00;;
3779;SDS011;1905;52.482;9.802;2024-01-10T08:17:24;22.20;;;10.33;;
3779;SDS011;1905;52.482;9.802;2024-01-10T08:19:54;30.03;;;12.13;;
3779;SDS011;1905;52.482;9.802;2024-01-10T08:22:22;33.20;;;12.10;;
3779;SDS011;1905;52.482;9.802;2024-01-10T08:24:57;17.67;;;10.20;;
3779;SDS011;1905;52.482;9.802;2024-01-10T08:27:30;24.30;;;10.27;;
3779;SDS011;1905;52.482;9.802;2024-01-10T08:30:03;28.30;;;10.30;;
3779;SDS011;1905;52.482;9.802;2024-01-10T08:32:36;24.13;;;9.63;;
3779;SDS011;1905;52.482;9.802;2024-01-10T08:35:05;25.20;;;12.40;;
3779;SDS011;1905;52.482;9.802;2024-01-10T08:37:33;24.47;;;10.07;;
3779;SDS011;1905;52.482;9.802;2024-01-10T08:40:02;24.47;;;14.50;;
3779;SDS011;1905;52.482;9.802;2024-01-10T08:42:34;49.00;;;17.63;;
3779;SDS011;1905;52.482;9.802;2024-01-10T08:45:04;40.10;;;17.00;;
3779;SDS011;1905;52.482;9.802;2024-01-10T08:47:32;55.07;;;22.90;;
3779;SDS011;1905;52.482;9.802;2024-01-10T08:50:01;49.43;;;17.90;;
3779;SDS011;1905;52.482;9.802;2024-01-10T08:52:31;30.43;;;13.47;;
3779;SDS011;1905;52.482;9.802;2024-01-10T08:54:59;26.90;;;12.30;;
3779;SDS011;1905;52.482;9.802;2024-01-10T08:57:27;55.03;;;22.83;;
3779;SDS011;1905;52.482;9.802;2024-01-10T08:59:55;41.53;;;14.33;;
3779;SDS011;1905;52.482;9.802;2024-01-10T09:02:35;54.63;;;16.77;;
3779;SDS011;1905;52.482;9.802;2024-01-10T09:05:15;30.90;;;14.40;;
3779;SDS011;1905;52.482;9.802;2024-01-10T09:07:45;34.50;;;14.47;;
3779;SDS011;1905;52.482;9.802;2024-01-10T09:10:14;36.57;;;17.23;;
3779;SDS011;1905;52.482;9.802;2024-01-10T09:12:48;30.20;;;11.53;;
3779;SDS011;1905;52.482;9.802;2024-01-10T09:15:19;31.37;;;14.63;;
3779;SDS011;1905;52.482;9.802;2024-01-10T09:17:49;31.27;;;11.20;;
3779;SDS011;1905;52.482;9.802;2024-01-10T09:20:18;25.30;;;9.70;;
3779;SDS011;1905;52.482;9.802;2024-01-10T09:22:47;32.07;;;14.27;;
3779;SDS011;1905;52.482;9.802;2024-01-10T09:25:15;28.00;;;12.50;;
3779;SDS011;1905;52.482;9.802;2024-01-10T09:27:43;30.33;;;10.03;;
3779;SDS011;1905;52.482;9.802;2024-01-10T09:30:13;35.40;;;16.90;;
3779;SDS011;1905;52.482;9.802;2024-01-10T09:32:43;48.13;;;19.03;;
3779;SDS011;1905;52.482;9.802;2024-01-10T09:35:12;37.43;;;17.43;;
3779;SDS011;1905;52.482;9.802;2024-01-10T09:37:40;25.10;;;10.87;;
3779;SDS011;1905;52.482;9.802;2024-01-10T09:40:08;25.93;;;11.33;;
3779;SDS011;1905;52.482;9.802;2024-01-10T09:42:39;31.73;;;12.20;;
3779;SDS011;1905;52.482;9.802;2024-01-10T09:45:07;28.20;;;12.63;;
3779;SDS011;1905;52.482;9.802;2024-01-10T09:47:39;21.50;;;10.30;;
3779;SDS011;1905;52.482;9.802;2024-01-10T09:50:09;25.43;;;10.20;;
3779;SDS011;1905;52.482;9.802;2024-01-10T09:52:41;26.77;;;9.63;;
3779;SDS011;1905;52.482;9.802;2024-01-10T09:55:13;24.07;;;11.53;;
3779;SDS011;1905;52.482;9.802;2024-01-10T09:57:42;31.80;;;11.70;;
3779;SDS011;1905;52.482;9.802;2024-01-10T10:00:10;29.77;;;11.97;;
3779;SDS011;1905;52.482;9.802;2024-01-10T10:02:39;27.87;;;14.30;;
3779;SDS011;1905;52.482;9.802;2024-01-10T10:05:08;25.57;;;11.03;;
3779;SDS011;1905;52.482;9.802;2024-01-10T10:07:45;23.10;;;12.20;;
3779;SDS011;1905;52.482;9.802;2024-01-10T10:10:13;23.73;;;12.53;;
3779;SDS011;1905;52.482;9.802;2024-01-10T10:12:42;33.17;;;11.93;;
3779;SDS011;1905;52.482;9.802;2024-01-10T10:15:11;32.63;;;13.77;;
3779;SDS011;1905;52.482;9.802;2024-01-10T10:17:40;41.53;;;14.20;;
3779;SDS011;1905;52.482;9.802;2024-01-10T10:20:13;38.43;;;12.40;;
3779;SDS011;1905;52.482;9.802;2024-01-10T10:23:00;30.10;;;11.43;;
3779;SDS011;1905;52.482;9.802;2024-01-10T10:25:30;25.80;;;12.23;;
3779;SDS011;1905;52.482;9.802;2024-01-10T10:27:59;27.63;;;12.60;;
3779;SDS011;1905;52.482;9.802;2024-01-10T10:30:28;30.77;;;13.27;;
3779;SDS011;1905;52.482;9.802;2024-01-10T10:32:56;27.80;;;13.40;;
3779;SDS011;1905;52.482;9.802;2024-01-10T10:35:25;34.57;;;12.67;;
3779;SDS011;1905;52.482;9.802;2024-01-10T10:38:10;34.77;;;11.50;;
3779;SDS011;1905;52.482;9.802;2024-01-10T10:40:38;31.53;;;14.63;;
3779;SDS011;1905;52.482;9.802;2024-01-10T10:43:06;35.83;;;14.70;;
3779;SDS011;1905;52.482;9.802;2024-01-10T10:45:41;30.00;;;13.63;;
3779;SDS011;1905;52.482;9.802;2024-01-10T10:48:15;24.37;;;12.17;;
3779;SDS011;1905;52.482;9.802;2024-01-10T10:50:47;24.43;;;9.53;;
3779;SDS011;1905;52.482;9.802;2024-01-10T10:53:24;26.57;;;10.13;;
3779;SDS011;1905;52.482;9.802;2024-01-10T10:55:55;24.70;;;11.47;;
3779;SDS011;1905;52.482;9.802;2024-01-10T10:58:26;29.03;;;12.30;;
3779;SDS011;1905;52.482;9.802;2024-01-10T11:00:55;26.17;;;13.10;;
3779;SDS011;1905;52.482;9.802;2024-01-10T11:03:25;22.83;;;11.43;;
3779;SDS011;1905;52.482;9.802;2024-01-10T11:05:56;34.27;;;13.30;;
3779;SDS011;1905;52.482;9.802;2024-01-10T11:08:28;24.30;;;10.13;;
3779;SDS011;1905;52.482;9.802;2024-01-10T11:10:58;22.10;;;10.93;;
3779;SDS011;1905;52.482;9.802;2024-01-10T11:13:28;36.40;;;15.23;;
3779;SDS011;1905;52.482;9.802;2024-01-10T11:16:16;26.57;;;12.83;;
3779;SDS011;1905;52.482;9.802;2024-01-10T11:19:04;30.73;;;11.83;;
3779;SDS011;1905;52.482;9.802;2024-01-10T11:21:55;22.20;;;10.03;;
3779;SDS011;1905;52.482;9.802;2024-01-10T11:24:28;28.87;;;13.10;;
3779;SDS011;1905;52.482;9.802;2024-01-10T11:27:06;30.50;;;13.90;;
3779;SDS011;1905;52.482;9.802;2024-01-10T11:29:36;30.27;;;12.13;;
3779;SDS011;1905;52.482;9.802;2024-01-10T11:32:05;24.70;;;12.17;;
3779;SDS011;1905;52.482;9.802;2024-01-10T11:34:36;24.30;;;10.50;;
3779;SDS011;1905;52.482;9.802;2024-01-10T11:37:10;32.43;;;12.97;;
3779;SDS011;1905;52.482;9.802;2024-01-10T11:39:41;26.00;;;11.73;;
3779;SDS011;1905;52.482;9.802;2024-01-10T11:42:10;25.00;;;12.40;;
3779;SDS011;1905;52.482;9.802;2024-01-10T11:44:46;33.73;;;14.40;;
3779;SDS011;1905;52.482;9.802;2024-01-10T11:47:16;25.27;;;12.10;;
3779;SDS011;1905;52.482;9.802;2024-01-10T11:49:53;30.83;;;11.70;;
3779;SDS011;1905;52.482;9.802;2024-01-10T11:52:31;31.00;;;13.90;;
3779;SDS011;1905;52.482;9.802;2024-01-10T11:55:02;39.60;;;15.43;;
3779;SDS011;1905;52.482;9.802;2024-01-10T11:57:31;25.43;;;11.97;;
3779;SDS011;1905;52.482;9.802;2024-01-10T12:00:01;29.23;;;11.67;;
3779;SDS011;1905;52.482;9.802;2024-01-10T12:02:32;31.20;;;11.93;;
3779;SDS011;1905;52.482;9.802;2024-01-10T12:05:00;34.23;;;11.13;;
3779;SDS011;1905;52.482;9.802;2024-01-10T12:07:29;25.83;;;12.83;;
3779;SDS011;1905;52.482;9.802;2024-01-10T12:09:58;23.50;;;11.37;;
3779;SDS011;1905;52.482;9.802;2024-01-10T12:12:28;35.33;;;12.70;;
3779;SDS011;1905;52.482;9.802;2024-01-10T12:14:56;25.47;;;11.00;;
3779;SDS011;1905;52.482;9.802;2024-01-10T12:17:26;28.60;;;12.73;;
3779;SDS011;1905;52.482;9.802;2024-01-10T12:19:55;22.97;;;10.13;;
3779;SDS011;1905;52.482;9.802;2024-01-10T12:22:23;30.50;;;12.67;;
3779;SDS011;1905;52.482;9.802;2024-01-10T12:24:51;26.10;;;12.27;;
3779;SDS011;1905;52.482;9.802;2024-01-10T12:27:19;18.30;;;10.23;;
3779;SDS011;1905;52.482;9.802;2024-01-10T12:29:52;23.43;;;11.20;;
3779;SDS011;1905;52.482;9.802;2024-01-10T12:32:20;20.63;;;10.57;;
3779;SDS011;1905;52.482;9.802;2024-01-10T12:34:54;28.67;;;11.53;;
3779;SDS011;1905;52.482;9.802;2024-01-10T12:37:22;23.97;;;10.93;;
3779;SDS011;1905;52.482;9.802;2024-01-10T12:39:50;25.30;;;11.93;;
3779;SDS011;1905;52.482;9.802;2024-01-10T12:42:18;31.00;;;12.47;;
3779;SDS011;1905;52.482;9.802;2024-01-10T12:44:47;23.63;;;10.90;;
3779;SDS011;1905;52.482;9.802;2024-01-10T12:47:19;21.80;;;10.87;;
3779;SDS011;1905;52.482;9.802;2024-01-10T12:49:48;27.13;;;11.83;;
3779;SDS011;1905;52.482;9.802;2024-01-10T12:52:16;25.50;;;11.13;;
3779;SDS011;1905;52.482;9.802;2024-01-10T12:54:48;32.30;;;15.03;;
3779;SDS011;1905;52.482;9.802;2024-01-10T12:57:16;26.43;;;10.43;;
3779;SDS011;1905;52.482;9.802;2024-01-10T12:59:44;25.27;;;11.27;;
3779;SDS011;1905;52.482;9.802;2024-01-10T13:02:12;23.57;;;9.77;;
3779;SDS011;1905;52.482;9.802;2024-01-10T13:04:42;22.23;;;11.10;;
3779;SDS011;1905;52.482;9.802;2024-01-10T13:07:10;23.33;;;10.00;;
3779;SDS011;1905;52.482;9.802;2024-01-10T13:09:40;25.10;;;11.10;;
3779;SDS011;1905;52.482;9.802;2024-01-10T13:12:10;22.07;;;10.43;;
3779;SDS011;1905;52.482;9.802;2024-01-10T13:14:39;24.47;;;11.60;;
3779;SDS011;1905;52.482;9.802;2024-01-10T13:17:08;30.87;;;12.70;;
3779;SDS011;1905;52.482;9.802;2024-01-10T13:19:36;17.30;;;8.90;;
3779;SDS011;1905;52.482;9.802;2024-01-10T13:22:06;18.10;;;9.90;;
3779;SDS011;1905;52.482;9.802;2024-01-10T13:24:36;26.83;;;10.10;;
3779;SDS011;1905;52.482;9.802;2024-01-10T13:27:04;23.53;;;10.43;;
3779;SDS011;1905;52.482;9.802;2024-01-10T13:29:34;17.37;;;9.70;;
3779;SDS011;1905;52.482;9.802;2024-01-10T13:32:03;18.40;;;8.90;;
3779;SDS011;1905;52.482;9.802;2024-01-10T13:34:32;22.43;;;9.60;;
3779;SDS011;1905;52.482;9.802;2024-01-10T13:37:00;22.20;;;9.67;;
3779;SDS011;1905;52.482;9.802;2024-01-10T13:39:30;29.67;;;10.63;;
3779;SDS011;1905;52.482;9.802;2024-01-10T13:42:01;25.30;;;9.47;;
3779;SDS011;1905;52.482;9.802;2024-01-10T13:44:29;20.97;;;10.20;;
3779;SDS011;1905;52.482;9.802;2024-01-10T13:46:57;25.07;;;10.17;;
3779;SDS011;1905;52.482;9.802;2024-01-10T13:49:25;34.70;;;11.03;;
3779;SDS011;1905;52.482;9.802;2024-01-10T13:51:53;28.63;;;11.33;;
3779;SDS011;1905;52.482;9.802;2024-01-10T13:54:21;25.37;;;10.50;;
3779;SDS011;1905;52.482;9.802;2024-01-10T13:56:51;16.73;;;7.40;;
3779;SDS011;1905;52.482;9.802;2024-01-10T13:59:25;35.23;;;14.17;;
3779;SDS011;1905;52.482;9.802;2024-01-10T14:01:53;21.27;;;8.60;;
3779;SDS011;1905;52.482;9.802;2024-01-10T14:04:21;19.47;;;9.60;;
3779;SDS011;1905;52.482;9.802;2024-01-10T14:06:53;16.60;;;7.97;;
3779;SDS011;1905;52.482;9.802;2024-01-10T14:09:22;21.50;;;9.80;;
3779;SDS011;1905;52.482;9.802;2024-01-10T14:11:54;23.10;;;7.37;;
3779;SDS011;1905;52.482;9.802;2024-01-10T14:14:25;19.53;;;8.40;;
3779;SDS011;1905;52.482;9.802;2024-01-10T14:16:56;20.50;;;9.20;;
3779;SDS011;1905;52.482;9.802;2024-01-10T14:19:24;17.83;;;9.30;;
3779;SDS011;1905;52.482;9.802;2024-01-10T14:21:53;20.20;;;8.00;;
3779;SDS011;1905;52.482;9.802;2024-01-10T14:24:23;19.20;;;7.93;;
3779;SDS011;1905;52.482;9.802;2024-01-10T14:26:51;22.37;;;9.20;;
3779;SDS011;1905;52.482;9.802;2024-01-10T14:29:20;18.40;;;7.90;;
3779;SDS011;1905;52.482;9.802;2024-01-10T14:31:48;25.63;;;10.00;;
3779;SDS011;1905;52.482;9.802;2024-01-10T14:34:38;22.53;;;9.00;;
3779;SDS011;1905;52.482;9.802;2024-01-10T14:37:07;18.23;;;8.50;;
3779;SDS011;1905;52.482;9.802;2024-01-10T14:39:35;22.97;;;8.40;;
3779;SDS011;1905;52.482;9.802;2024-01-10T14:42:05;18.73;;;8.30;;
3779;SDS011;1905;52.482;9.802;2024-01-10T14:44:36;23.20;;;9.00;;
3779;SDS011;1905;52.482;9.802;2024-01-10T14:47:04;19.30;;;7.50;;
3779;SDS011;1905;52.482;9.802;2024-01-10T14:49:37;19.63;;;6.90;;
3779;SDS011;1905;52.482;9.802;2024-01-10T14:52:06;26.50;;;9.47;;
3779;SDS011;1905;52.482;9.802;2024-01-10T14:54:33;22.67;;;9.37;;
3779;SDS011;1905;52.482;9.802;2024-01-10T14:57:01;23.43;;;10.93;;
3779;SDS011;1905;52.482;9.802;2024-01-10T14:59:29;19.97;;;9.30;;
3779;SDS011;1905;52.482;9.802;2024-01-10T15:02:12;17.73;;;7.90;;
3779;SDS011;1905;52.482;9.802;2024-01-10T15:04:39;19.00;;;6.90;;
3779;SDS011;1905;52.482;9.802;2024-01-10T15:07:07;18.53;;;8.93;;
3779;SDS011;1905;52.482;9.802;2024-01-10T15:09:36;22.83;;;8.80;;
3779;SDS011;1905;52.482;9.802;2024-01-10T15:12:04;19.93;;;8.17;;
3779;SDS011;1905;52.482;9.802;2024-01-10T15:14:34;20.30;;;7.67;;
3779;SDS011;1905;52.482;9.802;2024-01-10T15:17:03;21.90;;;9.20;;
3779;SDS011;1905;52.482;9.802;2024-01-10T15:19:33;20.20;;;9.23;;
3779;SDS011;1905;52.482;9.802;2024-01-10T15:22:02;22.07;;;7.63;;
3779;SDS011;1905;52.482;9.802;2024-01-10T15:24:32;23.30;;;9.97;;
3779;SDS011;1905;52.482;9.802;2024-01-10T15:27:00;21.07;;;9.80;;
3779;SDS011;1905;52.482;9.802;2024-01-10T15:29:32;15.77;;;8.30;;
3779;SDS011;1905;52.482;9.802;2024-01-10T15:32:00;25.43;;;8.70;;
3779;SDS011;1905;52.482;9.802;2024-01-10T15:34:29;27.20;;;9.87;;
3779;SDS011;1905;52.482;9.802;2024-01-10T15:36:58;19.93;;;9.30;;
3779;SDS011;1905;52.482;9.802;2024-01-10T15:39:26;22.27;;;10.20;;
3779;SDS011;1905;52.482;9.802;2024-01-10T15:41:54;19.27;;;9.07;;
3779;SDS011;1905;52.482;9.802;2024-01-10T15:44:22;22.33;;;8.10;;
3779;SDS011;1905;52.482;9.802;2024-01-10T15:46:50;22.53;;;9.80;;
3779;SDS011;1905;52.482;9.802;2024-01-10T15:49:18;20.63;;;8.60;;
3779;SDS011;1905;52.482;9.802;2024-01-10T15:51:46;18.37;;;8.93;;
3779;SDS011;1905;52.482;9.802;2024-01-10T15:54:16;22.60;;;8.60;;